Terminal Aerodrome Forecast
Issued by NWS

Home | Current Version | Previous Version | Text Only | Print | Product List | Glossary On
Versions: 1 2 3 4 5 6 7 8 9 10 11 12 13 14 15 16
501
FTUS42 TJSJ 300539
TAFNCM
TAF
TNCM 300539Z 3006/3106 10010KT P6SM VCTS SCT018CB BKN035
      TEMPO 3006/3010 VRB12KT 5SM -TSRA BKN018CB OVC040
     FM301030 09008KT P6SM VCSH SCT018 BKN040
     FM301450 11012KT P6SM FEW022 SCT050=

USA.gov is the U.S. government's official web portal to all federal, state and local government web resources and services.